Time;durP1;ratioP1;P1;durP2;ratioP2;P2;SDS_P1;SDS_P2;PMS_P1;PMS_P2;Temp;Humidity;BMP_temperature;BMP_pressure;BME280_temperature;BME280_humidity;BME280_pressure;Samples;Min_cycle;Max_cycle;Signal;HPM_P1;HPM_P2
2022/06/13 00:01:11;;;;;;;0.50;0.50;;;17.60;92.30;;;;;;5088828;28;20459;-76
2022/06/13 00:03:38;;;;;;;1.90;0.50;;;17.60;92.60;;;;;;5079861;28;20107;-76
2022/06/13 00:06:03;;;;;;;0.82;0.70;;;17.50;92.90;;;;;;5081880;28;20032;-76
2022/06/13 00:08:29;;;;;;;1.20;0.47;;;17.60;92.90;;;;;;5090260;28;20581;-76
2022/06/13 00:10:54;;;;;;;0.35;0.35;;;17.60;93.00;;;;;;5089018;28;20020;-76
2022/06/13 00:13:20;;;;;;;0.70;0.55;;;17.50;92.90;;;;;;5087008;28;20024;-75
2022/06/13 00:15:45;;;;;;;1.45;0.55;;;17.50;93.50;;;;;;5082308;28;20513;-75
2022/06/13 00:18:11;;;;;;;2.88;0.70;;;17.50;93.50;;;;;;5090502;28;20032;-76
2022/06/13 00:20:36;;;;;;;0.95;0.70;;;17.40;94.20;;;;;;5086757;28;20028;-76
2022/06/13 00:23:02;;;;;;;2.70;1.40;;;17.40;93.90;;;;;;5081493;28;20027;-76
2022/06/13 00:25:27;;;;;;;0.60;0.60;;;17.40;94.40;;;;;;5086340;28;20051;-76
2022/06/13 00:27:53;;;;;;;3.13;1.17;;;17.40;94.10;;;;;;5069993;28;20036;-76
2022/06/13 00:30:19;;;;;;;0.93;0.32;;;17.40;94.70;;;;;;5091992;28;20059;-76
2022/06/13 00:32:44;;;;;;;1.15;0.70;;;17.30;94.50;;;;;;5088060;28;20073;-76
2022/06/13 00:35:10;;;;;;;0.88;0.73;;;17.20;95.00;;;;;;5089091;28;20189;-76
2022/06/13 00:37:35;;;;;;;0.63;0.43;;;17.20;95.30;;;;;;5085119;28;20032;-76
2022/06/13 00:40:01;;;;;;;1.20;0.55;;;17.20;95.30;;;;;;5090516;28;20036;-76
2022/06/13 00:42:27;;;;;;;0.70;0.47;;;17.20;95.60;;;;;;5075707;28;20036;-76
2022/06/13 00:45:21;;;;;;;0.43;0.43;;;17.10;95.30;;;;;;5070668;28;20040;-75
2022/06/13 00:47:50;;;;;;;2.80;0.90;;;17.10;95.70;;;;;;5077889;28;20024;-75
2022/06/13 00:50:31;;;;;;;0.70;0.70;;;17.00;95.60;;;;;;5074377;28;20053;-76
2022/06/13 00:52:56;;;;;;;1.33;0.60;;;17.00;95.60;;;;;;5088400;28;20020;-76
2022/06/13 00:55:37;;;;;;;1.08;0.70;;;16.90;96.20;;;;;;5087520;28;20051;-75
2022/06/13 00:58:04;;;;;;;3.42;1.67;;;16.90;96.40;;;;;;5069653;28;20033;-76
2022/06/13 01:00:30;;;;;;;1.48;0.68;;;16.80;96.70;;;;;;5069791;28;20036;-76
2022/06/13 01:03:00;;;;;;;0.75;0.65;;;16.80;97.40;;;;;;5087485;28;20398;-76
2022/06/13 01:05:29;;;;;;;0.47;0.47;;;16.70;97.70;;;;;;5080858;28;20029;-76
2022/06/13 01:07:56;;;;;;;0.95;0.60;;;16.70;98.40;;;;;;5084048;28;20074;-76
2022/06/13 01:13:20;;;;;;;0.85;0.60;;;16.60;98.20;;;;;;5031400;28;20142;-76
2022/06/13 01:15:51;;;;;;;1.00;0.57;;;16.60;98.70;;;;;;5084358;28;20142;-77
2022/06/13 01:18:43;;;;;;;0.80;0.50;;;16.60;98.90;;;;;;5079719;28;20039;-76
2022/06/13 01:21:39;;;;;;;2.40;0.60;;;16.60;99.90;;;;;;5074683;28;20035;-76
2022/06/13 01:24:29;;;;;;;1.00;0.82;;;16.60;99.60;;;;;;5083680;28;20031;-76
2022/06/13 01:27:05;;;;;;;0.90;0.47;;;16.50;99.90;;;;;;5080458;28;20778;-76
2022/06/13 01:29:48;;;;;;;0.73;0.65;;;16.50;99.90;;;;;;5086891;28;20040;-76
2022/06/13 01:32:40;;;;;;;0.65;0.65;;;16.40;99.90;;;;;;5097206;28;20032;-76
2022/06/13 01:35:08;;;;;;;0.65;0.60;;;16.40;99.90;;;;;;5070381;28;20043;-76
2022/06/13 01:38:15;;;;;;;3.65;0.50;;;16.40;99.90;;;;;;5087243;28;20051;-76
2022/06/13 01:41:19;;;;;;;2.72;0.95;;;16.40;99.90;;;;;;5075750;28;20016;-75
2022/06/13 01:44:10;;;;;;;1.65;0.80;;;16.30;99.90;;;;;;5069767;28;20060;-76
2022/06/13 01:46:52;;;;;;;3.47;1.20;;;16.40;99.90;;;;;;5088108;28;20032;-76
2022/06/13 01:49:34;;;;;;;5.97;1.00;;;16.40;99.90;;;;;;5087614;28;20282;-76
2022/06/13 01:52:15;;;;;;;0.60;0.60;;;16.30;99.90;;;;;;5088753;28;20024;-76
2022/06/13 01:55:12;;;;;;;0.70;0.63;;;16.30;99.90;;;;;;5077031;28;20048;-76
2022/06/13 01:57:58;;;;;;;0.63;0.52;;;16.30;99.90;;;;;;5047859;28;20517;-76
2022/06/13 02:00:31;;;;;;;0.52;0.50;;;16.30;99.90;;;;;;5078278;28;20092;-76
2022/06/13 02:03:27;;;;;;;1.20;0.70;;;16.20;99.90;;;;;;5074333;28;20034;-75
2022/06/13 02:06:00;;;;;;;0.50;0.50;;;16.20;99.90;;;;;;5076431;28;20024;-75
2022/06/13 02:08:30;;;;;;;4.30;0.88;;;16.20;99.90;;;;;;5088027;28;20024;-76
2022/06/13 02:11:08;;;;;;;1.37;0.80;;;16.10;99.90;;;;;;5082286;28;20027;-77
2022/06/13 02:13:46;;;;;;;2.03;0.88;;;16.10;99.90;;;;;;5085172;28;20023;-74
2022/06/13 02:16:17;;;;;;;0.50;0.50;;;16.10;99.90;;;;;;5081390;28;20043;-74
2022/06/13 02:18:57;;;;;;;1.65;0.95;;;16.20;99.90;;;;;;5068679;28;20036;-73
2022/06/13 02:21:29;;;;;;;3.15;1.08;;;16.10;99.90;;;;;;5069020;28;20037;-73
2022/06/13 02:23:57;;;;;;;2.95;1.20;;;16.20;99.90;;;;;;5069939;28;20051;-73
2022/06/13 02:26:31;;;;;;;1.20;0.95;;;16.20;99.90;;;;;;5068653;28;20032;-73
2022/06/13 02:29:07;;;;;;;1.85;0.82;;;16.20;99.90;;;;;;5088279;28;20064;-74
2022/06/13 02:31:39;;;;;;;0.85;0.60;;;16.20;99.90;;;;;;5087115;28;20090;-73
2022/06/13 02:34:16;;;;;;;2.75;0.95;;;16.20;99.90;;;;;;5082353;28;20024;-73
2022/06/13 02:36:49;;;;;;;0.52;0.50;;;16.30;99.90;;;;;;5087574;28;20024;-74
2022/06/13 02:39:31;;;;;;;1.15;0.70;;;16.40;99.90;;;;;;5091955;28;20055;-73
2022/06/13 02:42:06;;;;;;;0.95;0.65;;;16.40;99.90;;;;;;5073670;28;20104;-73
2022/06/13 02:44:42;;;;;;;0.68;0.68;;;16.30;99.90;;;;;;5081315;28;20040;-73
2022/06/13 02:47:19;;;;;;;2.58;1.02;;;16.30;99.90;;;;;;5081432;28;20386;-74
2022/06/13 02:50:03;;;;;;;3.83;1.23;;;16.30;99.90;;;;;;5089929;28;20024;-73
2022/06/13 02:52:57;;;;;;;0.65;0.47;;;16.30;99.90;;;;;;5076856;28;20021;-74
2022/06/13 02:55:24;;;;;;;3.90;1.30;;;16.30;99.90;;;;;;5081776;28;20048;-73
2022/06/13 02:58:30;;;;;;;0.90;0.85;;;16.30;99.90;;;;;;5072411;28;20478;-73
2022/06/13 03:01:04;;;;;;;0.55;0.55;;;16.20;99.90;;;;;;5084888;28;20028;-73
2022/06/13 03:03:43;;;;;;;0.77;0.57;;;16.10;99.90;;;;;;5072727;28;20028;-73
2022/06/13 03:06:19;;;;;;;0.93;0.73;;;16.10;99.90;;;;;;5075848;28;20055;-73
2022/06/13 03:08:58;;;;;;;0.70;0.70;;;16.00;99.90;;;;;;5086481;28;20028;-73
2022/06/13 03:11:53;;;;;;;1.85;1.08;;;16.00;99.90;;;;;;5075554;28;20025;-77
2022/06/13 03:14:54;;;;;;;1.38;0.80;;;15.90;99.90;;;;;;5073737;28;20032;-75
2022/06/13 03:17:55;;;;;;;0.90;0.77;;;15.90;99.90;;;;;;5081015;28;20103;-75
2022/06/13 03:20:35;;;;;;;1.17;0.82;;;15.80;99.90;;;;;;5086950;28;20106;-76
2022/06/13 03:23:08;;;;;;;0.60;0.60;;;15.70;99.90;;;;;;5089778;28;20034;-75
2022/06/13 03:25:40;;;;;;;1.20;1.00;;;15.60;99.90;;;;;;5089375;28;20036;-75
2022/06/13 03:28:22;;;;;;;1.80;1.15;;;15.60;99.90;;;;;;5075448;28;20500;-76
2022/06/13 03:31:17;;;;;;;3.70;0.80;;;15.70;99.90;;;;;;5077813;28;20036;-75
2022/06/13 03:33:47;;;;;;;1.55;0.82;;;15.70;99.90;;;;;;5065839;28;20043;-75
2022/06/13 03:36:29;;;;;;;1.13;0.85;;;15.80;99.90;;;;;;5071854;28;20036;-75
2022/06/13 03:39:00;;;;;;;6.47;0.88;;;15.80;99.90;;;;;;5075540;28;20035;-75
2022/06/13 03:41:31;;;;;;;1.08;0.98;;;15.70;99.90;;;;;;5071627;28;20260;-75
2022/06/13 03:44:03;;;;;;;0.63;0.63;;;15.70;99.90;;;;;;5076839;28;20123;-75
2022/06/13 03:46:44;;;;;;;2.20;0.98;;;15.70;99.90;;;;;;5069544;28;20020;-75
2022/06/13 03:49:18;;;;;;;1.20;0.88;;;15.60;99.90;;;;;;5071673;28;20042;-75
2022/06/13 03:51:51;;;;;;;0.68;0.65;;;15.60;99.90;;;;;;5071914;28;20094;-75
2022/06/13 03:54:24;;;;;;;1.33;0.80;;;15.60;99.90;;;;;;5073913;28;20055;-74
2022/06/13 03:57:00;;;;;;;0.80;0.80;;;15.50;99.90;;;;;;5078977;28;20116;-75
2022/06/13 03:59:39;;;;;;;1.30;0.90;;;15.50;99.90;;;;;;5069146;28;20036;-76
2022/06/13 04:02:12;;;;;;;0.73;0.73;;;15.50;99.90;;;;;;5068826;28;20042;-75
2022/06/13 04:04:41;;;;;;;0.93;0.75;;;15.50;99.90;;;;;;5073076;28;20024;-75
2022/06/13 04:07:07;;;;;;;1.30;0.80;;;15.50;99.90;;;;;;5069255;28;20391;-76
2022/06/13 04:09:37;;;;;;;1.70;1.10;;;15.40;99.90;;;;;;5074297;28;20520;-75
2022/06/13 04:12:25;;;;;;;0.88;0.88;;;15.40;99.90;;;;;;5072153;28;20027;-75
2022/06/13 04:15:20;;;;;;;2.00;1.13;;;15.40;99.90;;;;;;5075492;28;20024;-75
2022/06/13 04:18:02;;;;;;;1.30;0.80;;;15.40;99.90;;;;;;5069946;28;20032;-75
2022/06/13 04:20:45;;;;;;;2.25;1.00;;;15.40;99.90;;;;;;5077645;28;20028;-75
2022/06/13 04:23:33;;;;;;;0.65;0.65;;;15.50;99.90;;;;;;5072804;28;20107;-76
2022/06/13 04:26:14;;;;;;;2.88;0.88;;;15.50;99.90;;;;;;5073617;28;20031;-77
2022/06/13 04:28:59;;;;;;;9.68;1.95;;;15.40;99.90;;;;;;5073761;28;20422;-79
2022/06/13 04:31:28;;;;;;;5.95;0.77;;;15.40;99.90;;;;;;5072272;28;20056;-77
2022/06/13 04:34:02;;;;;;;1.05;0.95;;;15.40;99.90;;;;;;5072482;28;20020;-79
2022/06/13 04:36:30;;;;;;;3.17;1.60;;;15.50;99.90;;;;;;5071942;28;20036;-77
2022/06/13 04:38:59;;;;;;;2.90;1.10;;;15.50;99.90;;;;;;5072333;28;21615;-78
2022/06/13 04:41:28;;;;;;;0.63;0.55;;;15.50;99.90;;;;;;5073462;28;20063;-76
2022/06/13 04:43:56;;;;;;;2.17;0.90;;;15.50;99.90;;;;;;5073713;28;20098;-79
2022/06/13 04:46:25;;;;;;;1.52;0.80;;;15.50;99.90;;;;;;5070616;28;20032;-75
2022/06/13 04:48:55;;;;;;;2.45;0.90;;;15.50;99.90;;;;;;5077675;28;20217;-76
2022/06/13 04:51:26;;;;;;;0.85;0.63;;;15.50;99.90;;;;;;5078020;28;20051;-76
2022/06/13 04:54:14;;;;;;;2.97;1.02;;;15.50;99.90;;;;;;5076182;28;20043;-76
2022/06/13 04:56:43;;;;;;;7.93;0.90;;;15.50;99.90;;;;;;5078299;28;20022;-76
2022/06/13 04:59:13;;;;;;;3.33;1.02;;;15.50;99.90;;;;;;5071055;28;20066;-77
2022/06/13 05:01:48;;;;;;;0.75;0.50;;;15.60;99.90;;;;;;5086617;28;20161;-78
2022/06/13 05:04:19;;;;;;;0.85;0.43;;;15.60;99.90;;;;;;5083155;28;20060;-78
2022/06/13 05:06:45;;;;;;;;;;;15.70;99.90;;;;;;5087348;28;20032;-77
2022/06/13 05:09:10;;;;;;;1.40;0.82;;;15.80;99.00;;;;;;5086029;28;19916;-78
2022/06/13 05:11:50;;;;;;;1.90;1.38;;;15.80;98.90;;;;;;5078075;28;20513;-76
2022/06/13 05:14:32;;;;;;;2.00;1.10;;;15.80;98.90;;;;;;5070548;28;20479;-77
2022/06/13 05:17:18;;;;;;;6.07;0.88;;;15.80;97.70;;;;;;5080387;28;20036;-74
2022/06/13 05:20:00;;;;;;;2.45;1.23;;;15.90;97.60;;;;;;5073617;28;20028;-78
2022/06/13 05:22:39;;;;;;;1.85;1.63;;;15.90;97.30;;;;;;5073970;28;20086;-75
2022/06/13 05:25:21;;;;;;;2.83;1.15;;;16.00;97.40;;;;;;5080473;28;20036;-74
2022/06/13 05:27:47;;;;;;;1.85;0.90;;;16.00;96.30;;;;;;5077552;28;20106;-77
2022/06/13 05:30:14;;;;;;;1.25;0.90;;;16.10;96.00;;;;;;5073846;28;20107;-76
2022/06/13 05:32:41;;;;;;;0.65;0.65;;;16.20;96.40;;;;;;5075411;28;20031;-78
2022/06/13 05:35:11;;;;;;;1.98;1.00;;;16.20;94.10;;;;;;5073615;28;20027;-76
2022/06/13 05:41:20;;;;;;;0.63;0.63;;;16.30;93.50;;;;;;5002792;28;20041;-75
2022/06/13 05:43:46;;;;;;;2.08;0.90;;;16.40;92.60;;;;;;5062621;28;20043;-76
2022/06/13 05:46:17;;;;;;;1.63;1.42;;;16.50;91.80;;;;;;5071985;28;20032;-76
2022/06/13 05:48:43;;;;;;;2.35;0.98;;;16.80;91.80;;;;;;5080926;28;20081;-75
2022/06/13 05:51:08;;;;;;;0.50;0.50;;;16.90;92.00;;;;;;5079558;28;20051;-76
2022/06/13 05:53:34;;;;;;;1.48;1.10;;;17.10;91.00;;;;;;5073375;28;20024;-76
2022/06/13 05:56:01;;;;;;;3.40;1.27;;;17.10;89.70;;;;;;5072758;28;20433;-76
2022/06/13 05:58:27;;;;;;;0.85;0.60;;;17.20;90.10;;;;;;5073331;28;20035;-75
2022/06/13 06:00:57;;;;;;;3.30;1.65;;;17.20;84.60;;;;;;5074947;28;20031;-76
2022/06/13 06:03:24;;;;;;;1.05;0.60;;;17.20;83.10;;;;;;5075528;28;20024;-76
2022/06/13 06:05:51;;;;;;;0.95;0.50;;;17.10;81.80;;;;;;5077287;28;20102;-76
2022/06/13 06:08:39;;;;;;;0.82;0.47;;;16.80;81.10;;;;;;5083238;28;20039;-76
2022/06/13 06:11:05;;;;;;;5.25;0.93;;;17.10;81.80;;;;;;5079430;28;20024;-77
2022/06/13 06:13:31;;;;;;;0.60;0.60;;;17.20;81.20;;;;;;5070779;28;20105;-85
2022/06/13 06:15:58;;;;;;;0.55;0.43;;;17.30;80.80;;;;;;5072916;28;20039;-78
2022/06/13 06:18:25;;;;;;;2.00;0.75;;;17.30;82.70;;;;;;5071490;28;20081;-78
2022/06/13 06:20:51;;;;;;;0.77;0.70;;;17.40;82.60;;;;;;5073097;28;20031;-76
2022/06/13 06:23:17;;;;;;;1.30;0.77;;;17.50;79.80;;;;;;5076944;28;20040;-80
2022/06/13 06:25:44;;;;;;;0.60;0.60;;;17.50;79.60;;;;;;5076748;28;20034;-77
2022/06/13 06:28:17;;;;;;;1.13;0.73;;;17.20;78.60;;;;;;5071184;28;20047;-77
2022/06/13 06:30:43;;;;;;;6.55;0.60;;;17.10;77.40;;;;;;5073480;28;20069;-78
2022/06/13 06:33:09;;;;;;;3.05;0.80;;;16.90;77.00;;;;;;5083836;28;20020;-76
2022/06/13 06:35:34;;;;;;;4.78;1.05;;;16.90;76.70;;;;;;5080834;28;20471;-77
2022/06/13 06:38:00;;;;;;;1.20;0.80;;;16.90;75.70;;;;;;5081770;28;20034;-76
2022/06/13 06:40:27;;;;;;;3.85;0.60;;;16.90;77.40;;;;;;5070885;28;20021;-76
2022/06/13 06:42:52;;;;;;;0.50;0.45;;;17.00;76.80;;;;;;5079965;28;20620;-77
2022/06/13 06:45:18;;;;;;;0.60;0.60;;;17.00;79.40;;;;;;5079350;28;20155;-78
2022/06/13 06:47:44;;;;;;;0.90;0.90;;;17.10;77.20;;;;;;5074269;28;20028;-77
2022/06/13 06:50:16;;;;;;;1.17;0.90;;;17.00;77.40;;;;;;5077685;28;20444;-81
2022/06/13 06:52:42;;;;;;;2.10;0.80;;;17.00;78.50;;;;;;5085757;28;20036;-79
2022/06/13 07:00:47;;;;;;;0.82;0.65;;;17.00;75.70;;;;;;5073426;28;20505;-76
2022/06/13 07:03:13;;;;;;;2.55;0.57;;;17.10;78.70;;;;;;5072127;28;20036;-75
2022/06/13 07:05:38;;;;;;;1.30;0.63;;;17.20;75.20;;;;;;5081760;28;20060;-76
2022/06/13 07:08:04;;;;;;;1.00;0.80;;;17.20;74.90;;;;;;5081800;28;20040;-79
2022/06/13 07:10:30;;;;;;;0.30;0.30;;;17.20;75.80;;;;;;5070337;28;20032;-77
2022/06/13 07:12:56;;;;;;;0.60;0.40;;;17.30;76.30;;;;;;5066953;28;20437;-76
2022/06/13 07:15:22;;;;;;;1.85;0.52;;;17.20;74.30;;;;;;5080429;28;20024;-78
2022/06/13 07:17:47;;;;;;;0.65;0.40;;;17.40;75.60;;;;;;5074189;28;20078;-78
2022/06/13 07:20:13;;;;;;;0.93;0.40;;;17.50;75.30;;;;;;5085338;28;20506;-80
2022/06/13 07:22:46;;;;;;;1.40;0.60;;;17.60;71.10;;;;;;5078166;28;20043;-80
2022/06/13 07:25:17;;;;;;;0.90;0.52;;;17.70;72.20;;;;;;5084709;28;20036;-81
2022/06/13 07:27:42;;;;;;;1.05;0.95;;;18.00;72.70;;;;;;5077069;28;20509;-80
2022/06/13 07:30:08;;;;;;;1.15;0.40;;;17.80;69.70;;;;;;5078736;28;20048;-81
2022/06/13 07:32:34;;;;;;;2.17;0.60;;;17.90;71.90;;;;;;5074777;28;20085;-81
2022/06/13 07:35:01;;;;;;;1.63;1.27;;;17.90;72.30;;;;;;5070622;28;20467;-79
2022/06/13 07:40:11;;;;;;;0.52;0.52;;;17.70;69.20;;;;;;5076179;28;20528;-80
2022/06/13 07:42:46;;;;;;;0.75;0.75;;;17.50;70.60;;;;;;5077024;28;20032;-83
2022/06/13 07:45:26;;;;;;;3.17;1.25;;;17.50;71.80;;;;;;5073044;28;20036;-80
2022/06/13 07:47:53;;;;;;;1.35;1.02;;;17.20;65.70;;;;;;5070404;28;20032;-81
2022/06/13 07:50:21;;;;;;;0.98;0.47;;;17.30;67.80;;;;;;5081223;28;20032;-81
2022/06/13 07:52:47;;;;;;;2.42;0.30;;;17.40;69.20;;;;;;5079319;28;20039;-80
2022/06/13 07:55:13;;;;;;;0.63;0.60;;;17.50;69.80;;;;;;5070097;28;20124;-81
2022/06/13 07:57:39;;;;;;;0.70;0.68;;;17.50;68.50;;;;;;5074351;28;20457;-80
2022/06/13 08:00:12;;;;;;;1.40;1.15;;;17.50;68.70;;;;;;5069300;28;20037;-81
2022/06/13 08:02:38;;;;;;;0.20;0.20;;;17.60;70.20;;;;;;5081144;28;20028;-82
2022/06/13 08:05:04;;;;;;;5.00;1.95;;;17.60;69.90;;;;;;5072371;28;20426;-84
2022/06/13 08:07:30;;;;;;;1.85;0.65;;;17.70;69.30;;;;;;5076430;28;20490;-82
2022/06/13 08:09:56;;;;;;;0.80;0.60;;;17.80;69.60;;;;;;5069174;28;20028;-83
2022/06/13 08:12:21;;;;;;;1.23;0.63;;;17.80;72.70;;;;;;5073543;28;20132;-85
2022/06/13 08:14:48;;;;;;;1.33;0.77;;;17.50;70.50;;;;;;5077366;28;20024;-84
2022/06/13 08:17:20;;;;;;;1.10;0.55;;;17.50;71.90;;;;;;5079539;28;20064;-83
2022/06/13 08:19:46;;;;;;;0.65;0.52;;;17.70;72.50;;;;;;5079332;28;20032;-83
2022/06/13 08:22:14;;;;;;;1.67;0.50;;;17.70;71.70;;;;;;5075315;28;20029;-83
2022/06/13 08:24:43;;;;;;;4.30;0.40;;;17.70;71.00;;;;;;5070262;28;20562;-82
2022/06/13 08:27:09;;;;;;;0.90;0.40;;;17.50;71.70;;;;;;5071827;28;20028;-85
2022/06/13 08:29:34;;;;;;;0.88;0.57;;;17.60;73.70;;;;;;5069618;28;20559;-84
2022/06/13 08:32:01;;;;;;;0.65;0.60;;;17.70;71.60;;;;;;5078369;28;20060;-81
2022/06/13 08:34:27;;;;;;;0.68;0.50;;;18.00;73.40;;;;;;5085045;28;20387;-80
2022/06/13 08:36:53;;;;;;;0.52;0.50;;;18.30;72.10;;;;;;5080169;28;20024;-82
2022/06/13 08:39:19;;;;;;;7.07;0.75;;;18.40;68.80;;;;;;5083292;28;20039;-80
2022/06/13 08:42:19;;;;;;;4.18;1.30;;;18.80;71.90;;;;;;5076708;28;20032;-82
2022/06/13 08:45:00;;;;;;;0.52;0.52;;;19.20;67.00;;;;;;5075756;28;20064;-81
2022/06/13 08:47:43;;;;;;;1.17;0.50;;;19.30;64.40;;;;;;5062371;28;20024;-78
2022/06/13 08:50:20;;;;;;;0.40;0.40;;;19.50;65.50;;;;;;5080005;28;20502;-78
2022/06/13 08:52:59;;;;;;;0.73;0.65;;;19.90;64.10;;;;;;5075524;28;20044;-76
2022/06/13 08:55:42;;;;;;;0.75;0.50;;;20.00;64.30;;;;;;5073885;28;20089;-76
2022/06/13 08:58:22;;;;;;;1.30;0.80;;;19.90;61.70;;;;;;5075147;28;20111;-77
2022/06/13 09:01:03;;;;;;;3.25;0.68;;;20.10;64.40;;;;;;5082788;28;20059;-76
2022/06/13 09:03:33;;;;;;;0.40;0.40;;;20.20;63.60;;;;;;5075029;28;20035;-76
2022/06/13 09:06:11;;;;;;;1.00;0.90;;;20.20;63.10;;;;;;5079349;28;20102;-77
2022/06/13 09:08:59;;;;;;;0.77;0.68;;;20.50;65.40;;;;;;5079998;28;20114;-76
2022/06/13 09:11:56;;;;;;;3.00;1.05;;;20.60;61.40;;;;;;5078127;28;20043;-75
2022/06/13 09:14:33;;;;;;;0.50;0.35;;;20.50;58.10;;;;;;5076812;28;20031;-77
2022/06/13 09:17:04;;;;;;;0.60;0.50;;;19.80;59.60;;;;;;5080282;28;20157;-75
2022/06/13 09:19:38;;;;;;;3.25;1.27;;;19.70;59.70;;;;;;5077257;28;20551;-76
2022/06/13 09:22:43;;;;;;;1.77;1.00;;;19.50;58.40;;;;;;5070202;28;20040;-76
2022/06/13 09:25:16;;;;;;;3.53;0.63;;;19.10;60.50;;;;;;5068487;28;20051;-77
2022/06/13 09:27:57;;;;;;;0.63;0.60;;;18.80;62.20;;;;;;5078353;28;20038;-76
2022/06/13 09:30:27;;;;;;;0.88;0.80;;;18.70;61.90;;;;;;5079249;28;20086;-76
2022/06/13 09:32:59;;;;;;;0.60;0.60;;;18.80;65.00;;;;;;5075617;28;20536;-77
2022/06/13 09:35:36;;;;;;;2.28;0.60;;;19.10;65.10;;;;;;5073522;28;20051;-75
2022/06/13 09:38:07;;;;;;;3.15;1.25;;;18.90;61.40;;;;;;5074919;28;20048;-81
2022/06/13 09:40:52;;;;;;;4.05;0.93;;;18.90;64.40;;;;;;5068818;28;20357;-75
2022/06/13 09:43:46;;;;;;;2.63;1.05;;;19.10;65.40;;;;;;5070934;28;20494;-78
2022/06/13 09:46:48;;;;;;;0.57;0.57;;;19.20;63.20;;;;;;5076331;28;20040;-75
2022/06/13 09:49:54;;;;;;;2.42;1.05;;;19.10;59.30;;;;;;5071864;28;20059;-76
2022/06/13 09:52:26;;;;;;;0.57;0.50;;;18.80;60.00;;;;;;5064287;28;20021;-77
2022/06/13 09:55:03;;;;;;;5.45;1.23;;;18.50;61.10;;;;;;5078471;28;20075;-76
2022/06/13 09:58:00;;;;;;;1.27;0.40;;;18.80;62.50;;;;;;5076182;28;20142;-77
2022/06/13 10:00:33;;;;;;;0.98;0.77;;;19.10;61.40;;;;;;5076052;28;20063;-77
2022/06/13 10:03:17;;;;;;;0.88;0.70;;;18.90;60.60;;;;;;5067649;28;20048;-77
2022/06/13 10:05:54;;;;;;;0.30;0.30;;;19.30;62.50;;;;;;5075454;28;20124;-77
2022/06/13 10:08:42;;;;;;;1.30;0.80;;;19.60;61.20;;;;;;5076754;28;20054;-75
2022/06/13 10:11:07;;;;;;;2.15;0.60;;;19.50;58.80;;;;;;5072446;28;20047;-77
2022/06/13 10:14:03;;;;;;;1.88;0.52;;;19.70;58.60;;;;;;5082553;28;20049;-76
2022/06/13 10:16:41;;;;;;;1.70;0.43;;;20.00;58.90;;;;;;5068841;28;20028;-78
2022/06/13 10:19:37;;;;;;;0.75;0.65;;;19.60;57.50;;;;;;5062592;28;20106;-77
2022/06/13 10:22:28;;;;;;;1.05;0.47;;;19.80;57.50;;;;;;5069287;28;20035;-77
2022/06/13 10:25:02;;;;;;;2.77;1.00;;;19.60;58.20;;;;;;5080782;28;20028;-76
2022/06/13 10:27:51;;;;;;;1.08;0.70;;;19.60;57.50;;;;;;5080650;28;20301;-76
2022/06/13 10:30:49;;;;;;;1.38;0.40;;;20.10;58.60;;;;;;5067486;28;20513;-75
2022/06/13 10:33:28;;;;;;;1.55;1.35;;;20.80;56.80;;;;;;5067693;28;20033;-77
2022/06/13 10:35:56;;;;;;;1.98;1.17;;;20.50;54.30;;;;;;5067859;28;20116;-76
2022/06/13 10:38:52;;;;;;;0.77;0.65;;;20.40;56.30;;;;;;5066255;28;20040;-77
2022/06/13 10:41:18;;;;;;;6.68;1.02;;;20.10;56.00;;;;;;5075202;28;20569;-77
2022/06/13 10:43:44;;;;;;;1.80;1.00;;;20.40;56.60;;;;;;5075036;28;20107;-77
2022/06/13 10:46:13;;;;;;;0.43;0.43;;;20.20;54.70;;;;;;5070841;28;20020;-78
2022/06/13 10:48:48;;;;;;;1.58;0.70;;;20.20;56.10;;;;;;5073490;28;20031;-76
2022/06/13 10:51:14;;;;;;;2.88;0.40;;;20.90;53.00;;;;;;5078384;28;20118;-77
2022/06/13 10:53:49;;;;;;;0.32;0.30;;;21.20;52.10;;;;;;5074417;28;20074;-77
2022/06/13 10:56:38;;;;;;;0.57;0.43;;;20.70;52.60;;;;;;5067778;28;20025;-76
2022/06/13 10:59:03;;;;;;;0.60;0.60;;;21.00;54.70;;;;;;5068648;28;20035;-77
2022/06/13 11:01:30;;;;;;;0.40;0.40;;;21.60;55.60;;;;;;5068060;28;20041;-77
2022/06/13 11:04:19;;;;;;;0.85;0.60;;;21.70;52.10;;;;;;5074372;28;20035;-76
2022/06/13 11:06:48;;;;;;;2.03;0.70;;;21.60;49.80;;;;;;5079567;28;20024;-77
2022/06/13 11:09:37;;;;;;;1.75;0.40;;;21.60;50.60;;;;;;5068597;28;20353;-77
2022/06/13 11:12:15;;;;;;;0.70;0.60;;;21.80;48.60;;;;;;5069772;28;20074;-76
2022/06/13 11:23:27;;;;;;;2.58;0.60;;;22.20;48.10;;;;;;5078405;28;20039;-77
2022/06/13 11:25:58;;;;;;;0.47;0.47;;;22.00;48.00;;;;;;5074582;28;20021;-77
2022/06/13 11:28:28;;;;;;;0.65;0.50;;;22.10;48.50;;;;;;5071502;28;20237;-76
2022/06/13 11:31:14;;;;;;;2.72;0.90;;;22.50;48.20;;;;;;5086587;28;20493;-76
2022/06/13 11:33:40;;;;;;;0.40;0.40;;;22.60;47.70;;;;;;5083179;28;20025;-77
2022/06/13 11:36:14;;;;;;;2.40;0.45;;;22.20;48.80;;;;;;5069247;28;20506;-77
2022/06/13 11:39:02;;;;;;;1.25;0.70;;;22.50;49.40;;;;;;5078349;28;20063;-76
2022/06/13 11:41:46;;;;;;;1.92;0.47;;;23.40;47.70;;;;;;5072188;28;20032;-77
2022/06/13 11:44:15;;;;;;;0.52;0.52;;;23.50;45.10;;;;;;5071260;28;20032;-76
2022/06/13 11:46:52;;;;;;;1.60;0.60;;;22.90;45.90;;;;;;5071260;28;20060;-76
2022/06/13 11:49:18;;;;;;;1.15;0.55;;;21.90;46.90;;;;;;5081248;28;20032;-76
2022/06/13 11:51:57;;;;;;;1.65;0.93;;;22.00;48.40;;;;;;5080031;28;20439;-76
2022/06/13 11:54:33;;;;;;;1.67;0.73;;;22.00;49.30;;;;;;5083339;28;20511;-76
2022/06/13 11:57:14;;;;;;;0.70;0.50;;;21.50;50.50;;;;;;5077092;28;20470;-83
2022/06/13 12:00:03;;;;;;;4.03;1.80;;;21.60;51.10;;;;;;5075108;28;20024;-80
2022/06/13 12:02:39;;;;;;;2.13;0.77;;;21.40;51.10;;;;;;5068550;28;20107;-81
2022/06/13 12:05:31;;;;;;;0.30;0.30;;;21.00;51.40;;;;;;5069394;28;20031;-79
2022/06/13 12:08:15;;;;;;;0.80;0.70;;;20.50;54.30;;;;;;5076088;28;20342;-80
2022/06/13 12:10:55;;;;;;;0.35;0.35;;;20.30;57.30;;;;;;5079538;28;20077;-81
2022/06/13 12:13:22;;;;;;;6.32;1.13;;;19.80;56.00;;;;;;5078158;28;20024;-78
2022/06/13 12:16:00;;;;;;;1.67;0.77;;;19.50;57.70;;;;;;5081387;28;20020;-80
2022/06/13 12:18:38;;;;;;;0.77;0.52;;;19.40;58.90;;;;;;5074360;28;20028;-82
2022/06/13 12:21:12;;;;;;;0.40;0.40;;;19.40;59.50;;;;;;5076519;28;20051;-79
2022/06/13 12:40:35;;;;;;;1.20;0.65;;;19.30;59.80;;;;;;5077311;27;20331;-75
2022/06/13 12:43:12;;;;;;;1.92;1.02;;;19.80;57.80;;;;;;5060867;28;20025;-77
2022/06/13 12:46:13;;;;;;;0.65;0.47;;;20.20;57.50;;;;;;5058815;28;20555;-75
2022/06/13 12:48:51;;;;;;;3.58;0.95;;;20.40;57.30;;;;;;5066968;28;20229;-75
2022/06/13 12:51:38;;;;;;;0.47;0.47;;;21.70;55.90;;;;;;5063328;28;20123;-76
2022/06/13 12:54:35;;;;;;;0.70;0.70;;;22.70;51.20;;;;;;5054282;28;20025;-76
2022/06/13 12:57:31;;;;;;;0.98;0.85;;;24.00;48.50;;;;;;5055238;28;20080;-76
2022/06/13 13:00:03;;;;;;;0.43;0.40;;;26.10;47.90;;;;;;5048451;28;20158;-76
2022/06/13 13:02:39;;;;;;;1.10;0.73;;;26.90;43.70;;;;;;5044311;28;20446;-89
2022/06/13 13:05:21;;;;;;;0.65;0.50;;;25.30;43.50;;;;;;5048877;28;20124;-77
2022/06/13 13:08:08;;;;;;;0.40;0.40;;;23.70;46.70;;;;;;5045148;28;20040;-77
2022/06/13 13:10:58;;;;;;;0.50;0.50;;;23.30;48.30;;;;;;5046172;28;20087;-77
2022/06/13 13:13:43;;;;;;;0.95;0.60;;;22.10;50.60;;;;;;5045825;28;20026;-78
2022/06/13 13:16:15;;;;;;;1.10;0.73;;;20.90;53.90;;;;;;5044293;28;20029;-78
2022/06/13 13:19:08;;;;;;;0.50;0.50;;;20.20;57.40;;;;;;5054283;28;20029;-76
2022/06/13 13:21:49;;;;;;;4.20;0.55;;;19.80;60.40;;;;;;5046852;28;20056;-77
2022/06/13 13:24:35;;;;;;;1.15;0.90;;;19.70;64.00;;;;;;5053056;28;20031;-77
2022/06/13 13:27:19;;;;;;;2.03;0.90;;;19.80;66.20;;;;;;5064272;28;20036;-76
2022/06/13 13:30:04;;;;;;;0.50;0.50;;;19.90;64.00;;;;;;5057979;28;20032;-78
2022/06/13 13:32:46;;;;;;;0.40;0.40;;;20.00;63.80;;;;;;5055570;28;20491;-77
2022/06/13 13:35:26;;;;;;;0.40;0.40;;;20.50;61.80;;;;;;5060348;28;20177;-76
2022/06/13 13:38:01;;;;;;;1.08;1.02;;;21.40;58.60;;;;;;5047868;28;20476;-77
2022/06/13 13:40:41;;;;;;;1.02;0.30;;;25.00;52.30;;;;;;5061562;28;20032;-77
2022/06/13 13:43:24;;;;;;;0.88;0.32;;;27.30;46.90;;;;;;5073803;28;20032;-78
2022/06/13 13:46:02;;;;;;;0.40;0.40;;;27.90;44.80;;;;;;5074462;28;20093;-77
2022/06/13 13:48:44;;;;;;;0.60;0.50;;;25.80;45.00;;;;;;5070387;28;20115;-77
2022/06/13 13:51:21;;;;;;;0.40;0.40;;;24.60;47.20;;;;;;5055713;28;20036;-78
2022/06/13 13:53:57;;;;;;;0.65;0.35;;;24.50;48.50;;;;;;5061307;23;20041;-79
2022/06/13 13:56:30;;;;;;;0.88;0.45;;;24.30;48.60;;;;;;5026213;28;20569;-78
2022/06/13 13:58:57;;;;;;;0.35;0.35;;;23.60;50.50;;;;;;5025432;28;20037;-77
2022/06/13 14:01:56;;;;;;;1.38;0.80;;;22.00;54.00;;;;;;5021918;28;20061;-78
2022/06/13 14:04:48;;;;;;;0.55;0.32;;;24.10;52.30;;;;;;5026871;28;20037;-77
2022/06/13 14:07:54;;;;;;;0.68;0.68;;;28.30;45.20;;;;;;5026605;28;20036;-78
2022/06/13 14:10:22;;;;;;;0.40;0.40;;;30.90;41.80;;;;;;5023504;28;20238;-78
2022/06/13 14:13:09;;;;;;;0.52;0.52;;;31.80;37.20;;;;;;5024654;28;20063;-78